createdAt,value
2023-04-24T00:00:49.094Z,8
2023-04-24T00:06:42.858Z,7.9
2023-04-24T00:12:34.302Z,7.8
2023-04-24T00:18:26.015Z,7.7
2023-04-24T00:24:17.180Z,7.6
2023-04-24T00:30:08.021Z,7.5
2023-04-24T00:35:59.911Z,7.4
2023-04-24T00:41:51.207Z,7.4
2023-04-24T00:47:41.742Z,7.3
2023-04-24T00:53:32.973Z,7.3
2023-04-24T00:59:08.696Z,7.3
2023-04-24T01:05:02.014Z,7.2
2023-04-24T01:10:53.580Z,7.2
2023-04-24T01:16:45.340Z,7.1
2023-04-24T01:22:37.534Z,7.1
2023-04-24T01:28:28.926Z,7
2023-04-24T01:34:20.858Z,6.8
2023-04-24T01:39:57.166Z,6.7
2023-04-24T01:45:48.753Z,6.5
2023-04-24T01:51:40.759Z,6.3
2023-04-24T01:57:31.956Z,6.1
2023-04-24T02:03:24.922Z,5.9
2023-04-24T02:09:17.686Z,5.7
2023-04-24T02:15:08.768Z,5.6
2023-04-24T02:21:00.179Z,5.4
2023-04-24T02:26:36.039Z,5.3
2023-04-24T02:32:27.041Z,5.2
2023-04-24T02:38:18.491Z,5.1
2023-04-24T02:44:09.754Z,5.1
2023-04-24T02:50:01.762Z,5.1
2023-04-24T02:55:53.492Z,4.9
2023-04-24T03:01:45.182Z,4.9
2023-04-24T03:07:38.649Z,4.8
2023-04-24T03:13:29.982Z,4.8
2023-04-24T03:19:24.726Z,4.8
2023-04-24T03:25:16.657Z,4.7
2023-04-24T03:31:08.485Z,4.8
2023-04-24T03:37:00.735Z,4.8
2023-04-24T03:42:38.783Z,4.8
2023-04-24T03:48:30.874Z,4.9
2023-04-24T03:54:23.734Z,5
2023-04-24T04:00:15.241Z,5.1
2023-04-24T04:06:09.007Z,5.4
2023-04-24T04:12:00.532Z,5.7
2023-04-24T04:17:52.118Z,5.9
2023-04-24T04:23:43.369Z,6.3
2023-04-24T04:29:35.245Z,6.6
2023-04-24T04:35:26.834Z,7
2023-04-24T04:41:18.826Z,7.5
2023-04-24T04:47:10.728Z,8.3
2023-04-24T04:53:02.575Z,9.2
2023-04-24T04:58:54.769Z,10.1
2023-04-24T05:04:50.044Z,11
2023-04-24T05:10:48.596Z,11.9
2023-04-24T05:16:52.579Z,12.6
2023-04-24T05:22:44.381Z,13.1
2023-04-24T05:28:19.517Z,13.6
2023-04-24T05:33:56.619Z,14.3
2023-04-24T05:39:48.071Z,15.3
2023-04-24T05:45:39.286Z,16.3
2023-04-24T05:51:15.372Z,17.5
2023-04-24T05:57:07.206Z,19.8
2023-04-24T06:02:58.985Z,22.6
2023-04-24T06:08:53.673Z,27.4
2023-04-24T06:14:14.857Z,31.8
2023-04-24T06:20:07.357Z,38.3
2023-04-24T06:25:58.564Z,41.4
2023-04-24T06:31:35.221Z,41.3
2023-04-24T06:37:34.922Z,42.6
2023-04-24T06:43:11.418Z,47.8
2023-04-24T06:48:48.476Z,41.1
2023-04-24T06:54:40.024Z,34.9
2023-04-24T07:00:31.988Z,41.1
2023-04-24T07:06:27.565Z,48.2
2023-04-24T07:12:19.256Z,41
2023-04-24T07:17:56.675Z,35.5
2023-04-24T07:23:33.058Z,43.3
2023-04-24T07:29:11.148Z,49.2
2023-04-24T07:35:03.749Z,46.5
2023-04-24T07:40:55.498Z,46.6
2023-04-24T07:46:47.804Z,48
2023-04-24T07:52:53.823Z,49.7
2023-04-24T07:58:48.034Z,50.8
2023-04-24T08:04:41.876Z,52.1
2023-04-24T08:10:38.278Z,53.1
2023-04-24T08:16:14.124Z,54.5
2023-04-24T08:22:06.712Z,55.7
2023-04-24T08:27:58.146Z,56.4
2023-04-24T08:33:37.262Z,56.2
2023-04-24T08:39:22.639Z,57.7
2023-04-24T08:45:14.291Z,59
2023-04-24T08:51:22.538Z,60.4
2023-04-24T08:57:13.931Z,60.9
2023-04-24T09:02:50.734Z,62.7
2023-04-24T09:08:45.577Z,63.3
2023-04-24T09:14:36.560Z,61.3
2023-04-24T09:26:04.795Z,58
2023-04-24T09:31:42.126Z,63
2023-04-24T09:37:18.124Z,65.6
2023-04-24T09:43:09.597Z,65.4
2023-04-24T09:49:11.991Z,66.6
2023-04-24T09:55:07.016Z,66.1
2023-04-24T10:00:59.058Z,68.5
2023-04-24T10:06:52.387Z,64.6
2023-04-24T10:12:44.904Z,67.8
2023-04-24T10:18:37.013Z,68.9
2023-04-24T10:24:28.789Z,65.6
2023-04-24T10:30:20.132Z,67.7
2023-04-24T10:36:12.752Z,68.3
2023-04-24T10:42:04.417Z,66.9
2023-04-24T10:47:56.787Z,71
2023-04-24T10:53:48.360Z,66
2023-04-24T10:59:40.161Z,66
2023-04-24T11:05:19.066Z,59.4
2023-04-24T11:11:12.567Z,55.7
2023-04-24T11:16:49.214Z,51.3
